sensor_id;sensor_type;location;lat;lon;timestamp;pressure;altitude;pressure_sealevel;temperature;humidity
10310;BME280;5200;43.236;27.986;2024-01-30T00:00:36;102156.78;;;0.42;100.00
10310;BME280;5200;43.236;27.986;2024-01-30T00:03:05;102118.81;;;0.43;100.00
10310;BME280;5200;43.236;27.986;2024-01-30T00:05:32;102127.31;;;0.51;100.00
10310;BME280;5200;43.236;27.986;2024-01-30T00:07:59;102148.81;;;0.56;100.00
10310;BME280;5200;43.236;27.986;2024-01-30T00:10:26;102155.72;;;0.57;100.00
10310;BME280;5200;43.236;27.986;2024-01-30T00:12:52;102160.91;;;0.55;100.00
10310;BME280;5200;43.236;27.986;2024-01-30T00:15:19;102165.19;;;0.58;100.00
10310;BME280;5200;43.236;27.986;2024-01-30T00:17:46;102130.88;;;0.44;100.00
10310;BME280;5200;43.236;27.986;2024-01-30T00:20:14;102161.78;;;0.56;100.00
10310;BME280;5200;43.236;27.986;2024-01-30T00:22:41;102113.44;;;0.55;100.00
10310;BME280;5200;43.236;27.986;2024-01-30T00:25:08;102127.44;;;0.41;100.00
10310;BME280;5200;43.236;27.986;2024-01-30T00:27:35;102129.94;;;0.48;100.00
10310;BME280;5200;43.236;27.986;2024-01-30T00:30:02;102111.91;;;0.41;100.00
10310;BME280;5200;43.236;27.986;2024-01-30T00:32:30;102154.00;;;0.57;100.00
10310;BME280;5200;43.236;27.986;2024-01-30T00:34:57;102118.81;;;0.43;100.00
10310;BME280;5200;43.236;27.986;2024-01-30T00:37:25;102140.41;;;0.40;100.00
10310;BME280;5200;43.236;27.986;2024-01-30T00:39:52;102151.50;;;0.50;100.00
10310;BME280;5200;43.236;27.986;2024-01-30T00:42:19;102134.47;;;0.33;100.00
10310;BME280;5200;43.236;27.986;2024-01-30T00:44:46;102143.94;;;0.36;100.00
10310;BME280;5200;43.236;27.986;2024-01-30T00:47:13;102154.97;;;0.49;100.00
10310;BME280;5200;43.236;27.986;2024-01-30T00:49:40;102141.28;;;0.37;100.00
10310;BME280;5200;43.236;27.986;2024-01-30T00:52:07;102148.03;;;0.51;100.00
10310;BME280;5200;43.236;27.986;2024-01-30T00:54:35;102138.56;;;0.48;100.00
10310;BME280;5200;43.236;27.986;2024-01-30T00:57:02;102133.41;;;0.47;100.00
10310;BME280;5200;43.236;27.986;2024-01-30T00:59:29;102143.75;;;0.50;100.00
10310;BME280;5200;43.236;27.986;2024-01-30T01:01:56;102141.16;;;0.47;100.00
10310;BME280;5200;43.236;27.986;2024-01-30T01:04:23;102139.38;;;0.52;100.00
10310;BME280;5200;43.236;27.986;2024-01-30T01:06:50;102146.28;;;0.53;100.00
10310;BME280;5200;43.236;27.986;2024-01-30T01:09:16;102125.75;;;0.37;100.00
10310;BME280;5200;43.236;27.986;2024-01-30T01:11:45;102146.41;;;0.45;100.00
10310;BME280;5200;43.236;27.986;2024-01-30T01:14:12;102156.69;;;0.50;100.00
10310;BME280;5200;43.236;27.986;2024-01-30T01:16:38;102115.44;;;0.34;100.00
10310;BME280;5200;43.236;27.986;2024-01-30T01:19:05;102124.72;;;0.49;100.00
10310;BME280;5200;43.236;27.986;2024-01-30T01:21:32;102093.81;;;0.37;100.00
10310;BME280;5200;43.236;27.986;2024-01-30T01:23:59;102122.97;;;0.51;100.00
10310;BME280;5200;43.236;27.986;2024-01-30T01:26:26;102110.88;;;0.52;100.00
10310;BME280;5200;43.236;27.986;2024-01-30T01:28:54;102108.34;;;0.49;100.00
10310;BME280;5200;43.236;27.986;2024-01-30T01:31:21;102101.53;;;0.40;100.00
10310;BME280;5200;43.236;27.986;2024-01-30T01:33:50;102147.97;;;0.54;100.00
10310;BME280;5200;43.236;27.986;2024-01-30T01:36:17;102112.00;;;0.35;100.00
10310;BME280;5200;43.236;27.986;2024-01-30T01:38:43;102117.97;;;0.39;100.00
10310;BME280;5200;43.236;27.986;2024-01-30T01:41:10;102148.03;;;0.51;100.00
10310;BME280;5200;43.236;27.986;2024-01-30T01:43:37;102139.47;;;0.47;100.00
10310;BME280;5200;43.236;27.986;2024-01-30T01:46:06;102117.03;;;0.45;100.00
10310;BME280;5200;43.236;27.986;2024-01-30T01:48:33;102123.81;;;0.52;100.00
10310;BME280;5200;43.236;27.986;2024-01-30T01:51:00;102129.09;;;0.47;100.00
10310;BME280;5200;43.236;27.986;2024-01-30T01:53:27;102130.78;;;0.50;100.00
10310;BME280;5200;43.236;27.986;2024-01-30T01:55:54;102131.63;;;0.50;100.00
10310;BME280;5200;43.236;27.986;2024-01-30T01:58:22;102129.00;;;0.55;100.00
10310;BME280;5200;43.236;27.986;2024-01-30T02:00:50;102114.47;;;0.43;100.00
10310;BME280;5200;43.236;27.986;2024-01-30T02:03:19;102105.00;;;0.40;100.00
10310;BME280;5200;43.236;27.986;2024-01-30T02:05:47;102128.16;;;0.53;100.00
10310;BME280;5200;43.236;27.986;2024-01-30T02:08:14;102108.50;;;0.38;100.00
10310;BME280;5200;43.236;27.986;2024-01-30T02:10:41;102129.13;;;0.46;100.00
10310;BME280;5200;43.236;27.986;2024-01-30T02:13:08;102129.91;;;0.49;100.00
10310;BME280;5200;43.236;27.986;2024-01-30T02:15:35;102149.84;;;0.46;100.00
10310;BME280;5200;43.236;27.986;2024-01-30T02:18:02;102130.88;;;0.44;100.00
10310;BME280;5200;43.236;27.986;2024-01-30T02:20:31;102116.28;;;0.35;100.00
10310;BME280;5200;43.236;27.986;2024-01-30T02:23:03;102129.91;;;0.49;100.00
10310;BME280;5200;43.236;27.986;2024-01-30T02:25:31;102142.84;;;0.51;100.00
10310;BME280;5200;43.236;27.986;2024-01-30T02:27:58;102148.03;;;0.51;100.00
10310;BME280;5200;43.236;27.986;2024-01-30T02:30:25;102113.75;;;0.33;100.00
10310;BME280;5200;43.236;27.986;2024-01-30T02:32:51;102115.44;;;0.34;100.00
10310;BME280;5200;43.236;27.986;2024-01-30T02:35:18;102137.72;;;0.46;100.00
10310;BME280;5200;43.236;27.986;2024-01-30T02:37:45;102146.44;;;0.40;100.00
10310;BME280;5200;43.236;27.986;2024-01-30T02:40:13;102132.84;;;0.26;100.00
10310;BME280;5200;43.236;27.986;2024-01-30T02:42:40;102142.25;;;0.30;100.00
10310;BME280;5200;43.236;27.986;2024-01-30T02:45:09;102124.22;;;0.24;100.00
10310;BME280;5200;43.236;27.986;2024-01-30T02:47:36;102122.59;;;0.14;100.00
10310;BME280;5200;43.236;27.986;2024-01-30T02:50:03;102151.75;;;0.28;100.00
10310;BME280;5200;43.236;27.986;2024-01-30T02:52:30;102139.78;;;0.21;100.00
10310;BME280;5200;43.236;27.986;2024-01-30T02:54:57;102153.53;;;0.26;100.00
10310;BME280;5200;43.236;27.986;2024-01-30T02:57:25;102142.34;;;0.24;100.00
10310;BME280;5200;43.236;27.986;2024-01-30T02:59:52;102143.97;;;0.31;100.00
10310;BME280;5200;43.236;27.986;2024-01-30T03:02:19;102136.13;;;0.37;100.00
10310;BME280;5200;43.236;27.986;2024-01-30T03:04:46;102149.06;;;0.37;100.00
10310;BME280;5200;43.236;27.986;2024-01-30T03:07:13;102147.38;;;0.36;100.00
10310;BME280;5200;43.236;27.986;2024-01-30T03:09:41;102127.78;;;0.17;100.00
10310;BME280;5200;43.236;27.986;2024-01-30T03:12:09;102145.72;;;0.29;100.00
10310;BME280;5200;43.236;27.986;2024-01-30T03:14:37;102106.22;;;0.15;100.00
10310;BME280;5200;43.236;27.986;2024-01-30T03:17:04;102117.47;;;0.11;100.00
10310;BME280;5200;43.236;27.986;2024-01-30T03:19:31;102137.13;;;0.26;100.00
10310;BME280;5200;43.236;27.986;2024-01-30T03:21:58;102127.66;;;0.26;100.00
10310;BME280;5200;43.236;27.986;2024-01-30T03:24:24;102142.38;;;0.21;100.00
10310;BME280;5200;43.236;27.986;2024-01-30T03:26:51;102149.28;;;0.20;100.00
10310;BME280;5200;43.236;27.986;2024-01-30T03:29:18;102125.34;;;0.03;100.00
10310;BME280;5200;43.236;27.986;2024-01-30T03:31:46;102108.97;;;0.03;100.00
10310;BME280;5200;43.236;27.986;2024-01-30T03:34:13;102132.13;;;0.13;100.00
10310;BME280;5200;43.236;27.986;2024-01-30T03:36:40;102139.84;;;0.16;100.00
10310;BME280;5200;43.236;27.986;2024-01-30T03:39:07;102138.13;;;0.17;100.00
10310;BME280;5200;43.236;27.986;2024-01-30T03:41:34;102106.28;;;0.10;100.00
10310;BME280;5200;43.236;27.986;2024-01-30T03:44:01;102124.28;;;0.18;100.00
10310;BME280;5200;43.236;27.986;2024-01-30T03:46:28;102125.06;;;0.26;100.00
10310;BME280;5200;43.236;27.986;2024-01-30T03:48:56;102113.81;;;0.27;100.00
10310;BME280;5200;43.236;27.986;2024-01-30T03:51:23;102097.56;;;0.16;100.00
10310;BME280;5200;43.236;27.986;2024-01-30T03:53:50;102116.50;;;0.19;100.00
10310;BME280;5200;43.236;27.986;2024-01-30T03:56:17;102116.47;;;0.21;100.00
10310;BME280;5200;43.236;27.986;2024-01-30T03:58:44;102128.47;;;0.30;100.00
10310;BME280;5200;43.236;27.986;2024-01-30T04:01:13;102112.13;;;0.23;100.00
10310;BME280;5200;43.236;27.986;2024-01-30T04:03:40;102112.97;;;0.25;100.00
10310;BME280;5200;43.236;27.986;2024-01-30T04:06:08;102130.94;;;0.37;100.00
10310;BME280;5200;43.236;27.986;2024-01-30T04:08:35;102153.44;;;0.35;100.00
10310;BME280;5200;43.236;27.986;2024-01-30T04:11:04;102099.34;;;0.12;100.00
10310;BME280;5200;43.236;27.986;2024-01-30T04:13:31;102127.56;;;0.32;100.00
10310;BME280;5200;43.236;27.986;2024-01-30T04:15:59;102106.94;;;0.26;100.00
10310;BME280;5200;43.236;27.986;2024-01-30T04:18:26;102107.69;;;0.33;100.00
10310;BME280;5200;43.236;27.986;2024-01-30T04:20:53;102109.44;;;0.32;100.00
10310;BME280;5200;43.236;27.986;2024-01-30T04:23:21;102100.03;;;0.25;100.00
10310;BME280;5200;43.236;27.986;2024-01-30T04:25:48;102125.72;;;0.40;100.00
10310;BME280;5200;43.236;27.986;2024-01-30T04:28:15;102136.94;;;0.41;100.00
10310;BME280;5200;43.236;27.986;2024-01-30T04:30:42;102123.97;;;0.43;100.00
10310;BME280;5200;43.236;27.986;2024-01-30T04:33:10;102142.06;;;0.44;100.00
10310;BME280;5200;43.236;27.986;2024-01-30T04:35:37;102130.88;;;0.44;100.00
10310;BME280;5200;43.236;27.986;2024-01-30T04:38:04;102141.22;;;0.44;100.00
10310;BME280;5200;43.236;27.986;2024-01-30T04:40:32;102154.91;;;0.55;100.00
10310;BME280;5200;43.236;27.986;2024-01-30T04:42:59;102157.59;;;0.46;100.00
10310;BME280;5200;43.236;27.986;2024-01-30T04:45:26;102144.72;;;0.43;100.00
10310;BME280;5200;43.236;27.986;2024-01-30T04:47:52;102122.19;;;0.45;100.00
10310;BME280;5200;43.236;27.986;2024-01-30T04:50:19;102154.91;;;0.52;100.00
10310;BME280;5200;43.236;27.986;2024-01-30T04:52:46;102148.09;;;0.48;100.00
10310;BME280;5200;43.236;27.986;2024-01-30T04:55:13;102144.75;;;0.38;100.00
10310;BME280;5200;43.236;27.986;2024-01-30T04:57:41;102123.16;;;0.40;100.00
10310;BME280;5200;43.236;27.986;2024-01-30T05:00:09;102113.66;;;0.39;100.00
10310;BME280;5200;43.236;27.986;2024-01-30T05:02:36;102132.47;;;0.52;100.00
10310;BME280;5200;43.236;27.986;2024-01-30T05:05:03;102137.66;;;0.51;100.00
10310;BME280;5200;43.236;27.986;2024-01-30T05:07:30;102140.31;;;0.48;100.00
10310;BME280;5200;43.236;27.986;2024-01-30T05:09:57;102136.03;;;0.44;100.00
10310;BME280;5200;43.236;27.986;2024-01-30T05:12:24;102134.34;;;0.41;100.00
10310;BME280;5200;43.236;27.986;2024-01-30T05:14:52;102125.63;;;0.47;100.00
10310;BME280;5200;43.236;27.986;2024-01-30T05:17:19;102103.34;;;0.35;100.00
10310;BME280;5200;43.236;27.986;2024-01-30T05:19:46;102135.06;;;0.52;100.00
10310;BME280;5200;43.236;27.986;2024-01-30T05:22:12;102132.44;;;0.54;100.00
10310;BME280;5200;43.236;27.986;2024-01-30T05:24:41;102112.78;;;0.40;100.00
10310;BME280;5200;43.236;27.986;2024-01-30T05:27:08;102142.84;;;0.52;100.00
10310;BME280;5200;43.236;27.986;2024-01-30T05:29:35;102134.94;;;0.61;100.00
10310;BME280;5200;43.236;27.986;2024-01-30T05:32:04;102134.16;;;0.55;100.00
10310;BME280;5200;43.236;27.986;2024-01-30T05:34:31;102128.88;;;0.61;100.00
10310;BME280;5200;43.236;27.986;2024-01-30T05:36:58;102144.41;;;0.64;100.00
10310;BME280;5200;43.236;27.986;2024-01-30T05:39:25;102134.16;;;0.55;100.00
10310;BME280;5200;43.236;27.986;2024-01-30T05:41:52;102131.66;;;0.49;100.00
10310;BME280;5200;43.236;27.986;2024-01-30T05:44:19;102159.97;;;0.61;100.00
10310;BME280;5200;43.236;27.986;2024-01-30T05:46:46;102142.00;;;0.50;100.00
10310;BME280;5200;43.236;27.986;2024-01-30T05:49:14;102166.88;;;0.62;100.00
10310;BME280;5200;43.236;27.986;2024-01-30T05:51:41;102154.91;;;0.52;100.00
10310;BME280;5200;43.236;27.986;2024-01-30T05:54:08;102152.25;;;0.58;100.00
10310;BME280;5200;43.236;27.986;2024-01-30T05:56:35;102135.09;;;0.49;100.00
10310;BME280;5200;43.236;27.986;2024-01-30T05:59:02;102157.38;;;0.61;100.00
10310;BME280;5200;43.236;27.986;2024-01-30T06:01:29;102164.28;;;0.63;100.00
10310;BME280;5200;43.236;27.986;2024-01-30T06:03:56;102179.78;;;0.65;100.00
10310;BME280;5200;43.236;27.986;2024-01-30T06:06:24;102169.47;;;0.60;100.00
10310;BME280;5200;43.236;27.986;2024-01-30T06:08:51;102176.41;;;0.58;100.00
10310;BME280;5200;43.236;27.986;2024-01-30T06:11:20;102209.06;;;0.73;100.00
10310;BME280;5200;43.236;27.986;2024-01-30T06:13:47;102192.78;;;0.62;100.00
10310;BME280;5200;43.236;27.986;2024-01-30T06:16:14;102187.66;;;0.59;100.00
10310;BME280;5200;43.236;27.986;2024-01-30T06:18:41;102225.50;;;0.69;100.00
10310;BME280;5200;43.236;27.986;2024-01-30T06:21:08;102205.69;;;0.65;100.00
10310;BME280;5200;43.236;27.986;2024-01-30T06:23:36;102205.63;;;0.71;100.00
10310;BME280;5200;43.236;27.986;2024-01-30T06:26:03;102196.16;;;0.67;100.00
10310;BME280;5200;43.236;27.986;2024-01-30T06:28:30;102213.50;;;0.63;100.00
10310;BME280;5200;43.236;27.986;2024-01-30T06:30:57;102187.59;;;0.62;100.00
10310;BME280;5200;43.236;27.986;2024-01-30T06:33:24;102181.66;;;0.54;100.00
10310;BME280;5200;43.236;27.986;2024-01-30T06:35:51;102197.84;;;0.71;100.00
10310;BME280;5200;43.236;27.986;2024-01-30T06:38:17;102191.81;;;0.69;100.00
10310;BME280;5200;43.236;27.986;2024-01-30T06:40:46;102164.41;;;0.53;100.00
10310;BME280;5200;43.236;27.986;2024-01-30T06:43:12;102203.16;;;0.62;100.00
10310;BME280;5200;43.236;27.986;2024-01-30T06:45:39;102193.66;;;0.61;100.00
10310;BME280;5200;43.236;27.986;2024-01-30T06:48:07;102180.69;;;0.61;100.00
10310;BME280;5200;43.236;27.986;2024-01-30T06:50:34;102213.34;;;0.74;100.00
10310;BME280;5200;43.236;27.986;2024-01-30T06:53:01;102221.13;;;0.73;100.00
10310;BME280;5200;43.236;27.986;2024-01-30T06:55:28;102213.41;;;0.70;100.00
10310;BME280;5200;43.236;27.986;2024-01-30T06:57:56;102223.78;;;0.68;100.00
10310;BME280;5200;43.236;27.986;2024-01-30T07:00:23;102210.06;;;0.61;100.00
10310;BME280;5200;43.236;27.986;2024-01-30T07:02:50;102212.59;;;0.66;100.00
10310;BME280;5200;43.236;27.986;2024-01-30T07:05:17;102205.84;;;0.53;100.00
10310;BME280;5200;43.236;27.986;2024-01-30T07:07:44;102220.78;;;0.32;100.00
10310;BME280;5200;43.236;27.986;2024-01-30T07:10:11;102233.63;;;0.41;100.00
10310;BME280;5200;43.236;27.986;2024-01-30T07:12:37;102205.28;;;0.29;100.00
10310;BME280;5200;43.236;27.986;2024-01-30T07:15:06;102225.75;;;0.49;100.00
10310;BME280;5200;43.236;27.986;2024-01-30T07:17:34;102217.06;;;0.55;100.00
10310;BME280;5200;43.236;27.986;2024-01-30T07:20:02;102242.06;;;0.59;100.00
10310;BME280;5200;43.236;27.986;2024-01-30T07:22:30;102203.31;;;0.50;100.00
10310;BME280;5200;43.236;27.986;2024-01-30T07:24:57;102196.25;;;0.61;100.00
10310;BME280;5200;43.236;27.986;2024-01-30T07:27:24;102212.44;;;0.77;100.00
10310;BME280;5200;43.236;27.986;2024-01-30T07:29:50;102216.72;;;0.82;100.00
10310;BME280;5200;43.236;27.986;2024-01-30T07:32:19;102215.69;;;0.91;100.00
10310;BME280;5200;43.236;27.986;2024-01-30T07:34:45;102207.84;;;0.97;100.00
10310;BME280;5200;43.236;27.986;2024-01-30T07:37:12;102219.97;;;0.94;100.00
10310;BME280;5200;43.236;27.986;2024-01-30T07:39:41;102224.97;;;1.09;100.00
10310;BME280;5200;43.236;27.986;2024-01-30T07:42:07;102240.31;;;1.21;100.00
10310;BME280;5200;43.236;27.986;2024-01-30T07:44:35;102190.97;;;1.27;100.00
10310;BME280;5200;43.236;27.986;2024-01-30T07:47:02;102223.38;;;1.55;100.00
10310;BME280;5200;43.236;27.986;2024-01-30T07:49:30;102215.66;;;1.50;100.00
10310;BME280;5200;43.236;27.986;2024-01-30T07:51:57;102231.19;;;1.53;100.00
10310;BME280;5200;43.236;27.986;2024-01-30T07:54:26;102206.16;;;1.51;100.00
10310;BME280;5200;43.236;27.986;2024-01-30T07:56:58;102208.00;;;1.42;100.00
10310;BME280;5200;43.236;27.986;2024-01-30T07:59:25;102219.97;;;1.51;100.00
10310;BME280;5200;43.236;27.986;2024-01-30T08:01:52;102205.25;;;1.53;100.00
10310;BME280;5200;43.236;27.986;2024-01-30T08:04:19;102212.28;;;1.45;100.00
10310;BME280;5200;43.236;27.986;2024-01-30T08:06:47;102224.88;;;1.68;100.00
10310;BME280;5200;43.236;27.986;2024-01-30T08:09:14;102198.84;;;1.73;100.00
10310;BME280;5200;43.236;27.986;2024-01-30T08:11:41;102221.16;;;1.83;100.00
10310;BME280;5200;43.236;27.986;2024-01-30T08:14:08;102200.44;;;1.81;100.00
10310;BME280;5200;43.236;27.986;2024-01-30T08:16:35;102219.66;;;1.69;100.00
10310;BME280;5200;43.236;27.986;2024-01-30T08:19:02;102218.78;;;1.71;100.00
10310;BME280;5200;43.236;27.986;2024-01-30T08:21:29;102190.28;;;1.67;100.00
10310;BME280;5200;43.236;27.986;2024-01-30T08:24:03;102199.56;;;1.81;100.00
10310;BME280;5200;43.236;27.986;2024-01-30T08:26:30;102209.16;;;1.76;100.00
10310;BME280;5200;43.236;27.986;2024-01-30T08:28:56;102206.69;;;1.69;100.00
10310;BME280;5200;43.236;27.986;2024-01-30T08:31:23;102221.91;;;1.89;100.00
10310;BME280;5200;43.236;27.986;2024-01-30T08:33:50;102214.13;;;1.89;100.00
10310;BME280;5200;43.236;27.986;2024-01-30T08:36:17;102215.28;;;1.73;100.00
10310;BME280;5200;43.236;27.986;2024-01-30T08:38:44;102220.53;;;1.70;100.00
10310;BME280;5200;43.236;27.986;2024-01-30T08:41:12;102218.06;;;1.62;100.00
10310;BME280;5200;43.236;27.986;2024-01-30T08:43:39;102220.75;;;1.56;100.00
10310;BME280;5200;43.236;27.986;2024-01-30T08:46:06;102202.69;;;1.50;100.00
10310;BME280;5200;43.236;27.986;2024-01-30T08:48:33;102196.63;;;1.51;100.00
10310;BME280;5200;43.236;27.986;2024-01-30T08:51:02;102220.41;;;1.76;100.00
10310;BME280;5200;43.236;27.986;2024-01-30T08:53:29;102230.84;;;1.72;100.00
10310;BME280;5200;43.236;27.986;2024-01-30T08:55:55;102201.44;;;1.73;100.00
10310;BME280;5200;43.236;27.986;2024-01-30T08:58:25;102208.13;;;1.86;100.00
10310;BME280;5200;43.236;27.986;2024-01-30T09:00:52;102233.81;;;2.01;100.00
10310;BME280;5200;43.236;27.986;2024-01-30T09:03:19;102214.75;;;2.02;100.00
10310;BME280;5200;43.236;27.986;2024-01-30T09:05:46;102247.38;;;2.17;100.00
10310;BME280;5200;43.236;27.986;2024-01-30T09:08:13;102222.41;;;2.10;100.00
10310;BME280;5200;43.236;27.986;2024-01-30T09:10:40;102232.38;;;2.30;100.00
10310;BME280;5200;43.236;27.986;2024-01-30T09:13:07;102222.72;;;2.38;100.00
10310;BME280;5200;43.236;27.986;2024-01-30T09:15:35;102203.78;;;2.33;100.00
10310;BME280;5200;43.236;27.986;2024-01-30T09:18:02;102194.25;;;2.32;100.00
10310;BME280;5200;43.236;27.986;2024-01-30T09:20:29;102191.28;;;2.49;100.00
10310;BME280;5200;43.236;27.986;2024-01-30T09:22:56;102220.53;;;2.59;100.00
10310;BME280;5200;43.236;27.986;2024-01-30T09:25:22;102193.03;;;2.50;100.00
10310;BME280;5200;43.236;27.986;2024-01-30T09:27:49;102216.53;;;2.84;100.00
10310;BME280;5200;43.236;27.986;2024-01-30T09:30:17;102215.66;;;2.85;100.00
10310;BME280;5200;43.236;27.986;2024-01-30T09:32:45;102221.88;;;2.78;100.00
10310;BME280;5200;43.236;27.986;2024-01-30T09:35:12;102214.00;;;2.81;100.00
10310;BME280;5200;43.236;27.986;2024-01-30T09:37:39;102217.41;;;2.85;100.00
10310;BME280;5200;43.236;27.986;2024-01-30T09:40:07;102224.28;;;2.87;100.00
10310;BME280;5200;43.236;27.986;2024-01-30T09:42:34;102228.78;;;2.79;100.00
10310;BME280;5200;43.236;27.986;2024-01-30T09:45:02;102200.53;;;2.64;100.00
10310;BME280;5200;43.236;27.986;2024-01-30T09:47:31;102211.13;;;2.53;100.00
10310;BME280;5200;43.236;27.986;2024-01-30T09:50:00;102224.88;;;2.60;100.00
10310;BME280;5200;43.236;27.986;2024-01-30T09:52:31;102230.97;;;2.57;100.00
10310;BME280;5200;43.236;27.986;2024-01-30T09:54:59;102178.25;;;2.52;100.00
10310;BME280;5200;43.236;27.986;2024-01-30T09:57:26;102186.81;;;2.57;100.00
10310;BME280;5200;43.236;27.986;2024-01-30T09:59:53;102183.28;;;2.60;100.00
10310;BME280;5200;43.236;27.986;2024-01-30T10:02:20;102195.81;;;2.81;100.00
10310;BME280;5200;43.236;27.986;2024-01-30T10:04:48;102183.03;;;2.70;100.00
10310;BME280;5200;43.236;27.986;2024-01-30T10:07:16;102202.69;;;2.82;100.00
10310;BME280;5200;43.236;27.986;2024-01-30T10:09:43;102184.63;;;2.78;100.00
10310;BME280;5200;43.236;27.986;2024-01-30T10:12:10;102167.56;;;2.66;100.00
10310;BME280;5200;43.236;27.986;2024-01-30T10:14:38;102190.69;;;2.78;100.00
10310;BME280;5200;43.236;27.986;2024-01-30T10:17:05;102176.97;;;2.70;100.00
10310;BME280;5200;43.236;27.986;2024-01-30T10:19:32;102163.97;;;2.70;100.00
10310;BME280;5200;43.236;27.986;2024-01-30T10:21:59;102183.63;;;2.83;100.00
10310;BME280;5200;43.236;27.986;2024-01-30T10:24:28;102181.66;;;2.94;100.00
10310;BME280;5200;43.236;27.986;2024-01-30T10:26:55;102187.06;;;2.85;100.00
10310;BME280;5200;43.236;27.986;2024-01-30T10:29:22;102174.91;;;2.84;100.00
10310;BME280;5200;43.236;27.986;2024-01-30T10:31:57;102201.34;;;3.05;100.00
10310;BME280;5200;43.236;27.986;2024-01-30T10:34:24;102181.91;;;3.20;100.00
10310;BME280;5200;43.236;27.986;2024-01-30T10:36:59;102176.53;;;3.27;100.00
10310;BME280;5200;43.236;27.986;2024-01-30T10:39:29;102176.75;;;3.18;100.00
10310;BME280;5200;43.236;27.986;2024-01-30T10:42:02;102148.50;;;3.03;100.00
10310;BME280;5200;43.236;27.986;2024-01-30T10:44:36;102171.25;;;3.29;100.00
10310;BME280;5200;43.236;27.986;2024-01-30T10:47:06;102162.94;;;3.16;100.00
10310;BME280;5200;43.236;27.986;2024-01-30T10:49:36;102181.44;;;3.04;100.00
10310;BME280;5200;43.236;27.986;2024-01-30T10:52:05;102183.00;;;3.11;100.00
10310;BME280;5200;43.236;27.986;2024-01-30T10:54:35;102163.53;;;3.27;100.00
10310;BME280;5200;43.236;27.986;2024-01-30T10:57:03;102168.56;;;3.33;100.00
10310;BME280;5200;43.236;27.986;2024-01-30T10:59:30;102149.38;;;3.37;100.00
10310;BME280;5200;43.236;27.986;2024-01-30T11:01:58;102142.38;;;3.39;100.00
10310;BME280;5200;43.236;27.986;2024-01-30T11:04:25;102175.66;;;3.61;100.00
10310;BME280;5200;43.236;27.986;2024-01-30T11:06:52;102150.81;;;3.49;100.00
10310;BME280;5200;43.236;27.986;2024-01-30T11:09:20;102132.59;;;3.49;100.00
10310;BME280;5200;43.236;27.986;2024-01-30T11:11:56;102149.50;;;3.66;100.00
10310;BME280;5200;43.236;27.986;2024-01-30T11:14:25;102152.38;;;3.55;100.00
10310;BME280;5200;43.236;27.986;2024-01-30T11:16:52;102134.25;;;3.52;100.00
10310;BME280;5200;43.236;27.986;2024-01-30T11:19:24;102138.66;;;3.50;100.00
10310;BME280;5200;43.236;27.986;2024-01-30T11:21:52;102143.09;;;3.46;100.00
10310;BME280;5200;43.236;27.986;2024-01-30T11:24:20;102146.19;;;3.60;100.00
10310;BME280;5200;43.236;27.986;2024-01-30T11:26:48;102141.19;;;3.53;100.00
10310;BME280;5200;43.236;27.986;2024-01-30T11:29:18;102124.38;;;3.32;100.00
10310;BME280;5200;43.236;27.986;2024-01-30T11:31:54;102142.59;;;3.32;100.00
10310;BME280;5200;43.236;27.986;2024-01-30T11:34:21;102125.13;;;3.35;100.00
10310;BME280;5200;43.236;27.986;2024-01-30T11:36:55;102108.94;;;3.24;100.00
10310;BME280;5200;43.236;27.986;2024-01-30T11:39:25;102145.63;;;3.48;100.00
10310;BME280;5200;43.236;27.986;2024-01-30T11:41:53;102129.50;;;3.35;100.00
10310;BME280;5200;43.236;27.986;2024-01-30T11:44:21;102148.91;;;3.56;100.00
10310;BME280;5200;43.236;27.986;2024-01-30T11:46:49;102136.63;;;3.61;100.00
10310;BME280;5200;43.236;27.986;2024-01-30T11:49:16;102142.63;;;3.65;100.00
10310;BME280;5200;43.236;27.986;2024-01-30T11:51:45;102113.31;;;3.56;100.00
10310;BME280;5200;43.236;27.986;2024-01-30T11:54:14;102119.78;;;3.74;100.00
10310;BME280;5200;43.236;27.986;2024-01-30T11:56:42;102110.75;;;3.55;100.00
10310;BME280;5200;43.236;27.986;2024-01-30T11:59:09;102124.56;;;3.57;100.00
10310;BME280;5200;43.236;27.986;2024-01-30T12:01:37;102118.84;;;3.44;100.00
10310;BME280;5200;43.236;27.986;2024-01-30T12:04:04;102130.19;;;3.42;100.00
10310;BME280;5200;43.236;27.986;2024-01-30T12:06:34;102118.16;;;3.37;100.00
10310;BME280;5200;43.236;27.986;2024-01-30T12:09:02;102123.34;;;3.37;100.00
10310;BME280;5200;43.236;27.986;2024-01-30T12:11:29;102129.88;;;3.54;100.00
10310;BME280;5200;43.236;27.986;2024-01-30T12:13:56;102128.81;;;3.61;100.00
10310;BME280;5200;43.236;27.986;2024-01-30T12:16:23;102130.47;;;3.64;100.00
10310;BME280;5200;43.236;27.986;2024-01-30T12:18:59;102108.13;;;3.55;100.00
10310;BME280;5200;43.236;27.986;2024-01-30T12:21:26;102104.75;;;3.53;100.00
10310;BME280;5200;43.236;27.986;2024-01-30T12:23:53;102132.91;;;3.70;100.00
10310;BME280;5200;43.236;27.986;2024-01-30T12:26:20;102122.28;;;3.77;100.00
10310;BME280;5200;43.236;27.986;2024-01-30T12:28:49;102102.63;;;3.67;100.00
10310;BME280;5200;43.236;27.986;2024-01-30T12:31:16;102141.59;;;3.70;100.00
10310;BME280;5200;43.236;27.986;2024-01-30T12:33:43;102131.16;;;3.70;100.00
10310;BME280;5200;43.236;27.986;2024-01-30T12:36:12;102100.19;;;3.61;100.00
10310;BME280;5200;43.236;27.986;2024-01-30T12:38:39;102101.81;;;3.65;100.00
10310;BME280;5200;43.236;27.986;2024-01-30T12:41:07;102129.03;;;3.85;100.00
10310;BME280;5200;43.236;27.986;2024-01-30T12:43:35;102097.44;;;3.66;100.00
10310;BME280;5200;43.236;27.986;2024-01-30T12:46:03;102116.25;;;3.77;100.00
10310;BME280;5200;43.236;27.986;2024-01-30T12:48:30;102103.00;;;3.85;100.00
10310;BME280;5200;43.236;27.986;2024-01-30T12:50:57;102121.19;;;3.86;100.00